createdAt,value
2018-11-10T00:00:48.992Z,97985.31
2018-11-10T00:03:17.568Z,97985.31
2018-11-10T00:05:46.142Z,97988.08
2018-11-10T00:08:15.011Z,97990.27
2018-11-10T00:10:43.514Z,97984.55
2018-11-10T00:13:12.091Z,97990.39
2018-11-10T00:15:40.805Z,97991.34
2018-11-10T00:18:09.380Z,97995.35
2018-11-10T00:20:38.986Z,97990.39
2018-11-10T00:23:10.160Z,97989.63
2018-11-10T00:25:41.747Z,97991.95
2018-11-10T00:28:12.747Z,97988.78
2018-11-10T00:30:41.282Z,97985.71
2018-11-10T00:33:09.830Z,97989.72
2018-11-10T00:35:38.564Z,97991.67
2018-11-10T00:38:07.626Z,97980.09
2018-11-10T00:40:36.180Z,97976.56
2018-11-10T00:43:05.065Z,97970.84
2018-11-10T00:45:33.636Z,97974.01
2018-11-10T00:48:02.302Z,97967.32
2018-11-10T00:50:30.952Z,97961.57
2018-11-10T00:52:59.566Z,97956.22
2018-11-10T00:55:28.429Z,97958.05
2018-11-10T00:57:57.037Z,97947.44
2018-11-10T01:00:25.683Z,97948.41
2018-11-10T01:02:54.961Z,97944.03
2018-11-10T01:05:23.656Z,97946.77
2018-11-10T01:07:52.195Z,97948.05
2018-11-10T01:10:21.301Z,97944.09
2018-11-10T01:12:50.054Z,97952.12
2018-11-10T01:15:18.621Z,97951.27
2018-11-10T01:17:47.861Z,97943.33
2018-11-10T01:20:16.680Z,97941.05
2018-11-10T01:22:45.216Z,97932.63
2018-11-10T01:25:13.760Z,97930.08
2018-11-10T01:27:43.224Z,97924.24
2018-11-10T01:30:15.945Z,97919.74
2018-11-10T01:32:45.398Z,97920.59
2018-11-10T01:35:14.634Z,97917.07
2018-11-10T01:37:43.260Z,97919.26
2018-11-10T01:40:13.185Z,97910.88
2018-11-10T01:42:42.426Z,97914.39
2018-11-10T01:45:13.629Z,97909.14
2018-11-10T01:47:42.462Z,97904.67
2018-11-10T01:50:11.428Z,97908.28
2018-11-10T01:52:40.438Z,97904.00
2018-11-10T01:55:09.818Z,97906.19
2018-11-10T01:57:38.417Z,97896.47
2018-11-10T02:00:10.833Z,97883.58
2018-11-10T02:02:40.012Z,97882.24
2018-11-10T02:05:08.629Z,97876.98
2018-11-10T02:07:37.321Z,97878.81
2018-11-10T02:10:07.271Z,97872.13
2018-11-10T02:12:35.763Z,97866.87
2018-11-10T02:15:04.441Z,97860.18
2018-11-10T02:17:32.905Z,97847.20
2018-11-10T02:20:01.453Z,97855.71
2018-11-10T02:22:30.038Z,97845.47
2018-11-10T02:24:58.736Z,97837.09
2018-11-10T02:27:28.600Z,97827.36
2018-11-10T02:29:57.312Z,97813.11
2018-11-10T02:32:25.804Z,97802.90
2018-11-10T02:34:54.514Z,97814.94
2018-11-10T02:37:22.994Z,97828.30
2018-11-10T02:39:51.489Z,97837.09
2018-11-10T02:42:20.023Z,97848.63
2018-11-10T02:44:48.676Z,97850.45
2018-11-10T02:47:18.041Z,97840.61
2018-11-10T02:49:46.732Z,97843.28
2018-11-10T02:52:15.214Z,97854.47
2018-11-10T02:54:43.765Z,97848.36
2018-11-10T02:57:12.536Z,97854.11
2018-11-10T02:59:41.012Z,97849.97
2018-11-10T03:02:09.593Z,97843.50
2018-11-10T03:04:38.100Z,97829.77
2018-11-10T03:07:06.641Z,97827.81
2018-11-10T03:09:35.112Z,97839.58
2018-11-10T03:12:04.348Z,97863.28
2018-11-10T03:14:33.414Z,97857.94
2018-11-10T03:17:01.920Z,97861.95
2018-11-10T03:19:30.566Z,97864.63
2018-11-10T03:21:59.056Z,97859.27
2018-11-10T03:24:27.568Z,97841.04
2018-11-10T03:26:57.282Z,97844.69
2018-11-10T03:29:25.778Z,97857.94
2018-11-10T03:31:54.346Z,97839.22
2018-11-10T03:34:23.013Z,97835.79
2018-11-10T03:36:52.103Z,97824.64
2018-11-10T03:39:20.771Z,97805.03
2018-11-10T03:41:49.307Z,97803.70
2018-11-10T03:44:18.689Z,97812.97
2018-11-10T03:46:47.129Z,97819.52
2018-11-10T03:49:15.910Z,97813.81
2018-11-10T03:51:44.556Z,97812.48
2018-11-10T03:54:13.197Z,97809.31
2018-11-10T03:56:41.707Z,97811.14
2018-11-10T03:59:10.352Z,97831.10
2018-11-10T04:01:39.457Z,97834.72
2018-11-10T04:04:08.673Z,97839.22
2018-11-10T04:06:37.177Z,97837.30
2018-11-10T04:09:06.725Z,97846.44
2018-11-10T04:11:35.561Z,97843.02
2018-11-10T04:14:04.711Z,97830.89
2018-11-10T04:16:33.289Z,97827.81
2018-11-10T04:19:01.929Z,97822.95
2018-11-10T04:21:31.653Z,97811.41
2018-11-10T04:24:00.344Z,97795.85
2018-11-10T04:26:28.893Z,97790.98
2018-11-10T04:28:57.382Z,97785.64
2018-11-10T04:31:26.494Z,97787.44
2018-11-10T04:33:55.113Z,97780.30
2018-11-10T04:36:23.692Z,97783.42
2018-11-10T04:38:52.297Z,97780.66
2018-11-10T04:41:20.797Z,97782.09
2018-11-10T04:43:49.313Z,97785.16
2018-11-10T04:46:17.849Z,97786.48
2018-11-10T04:48:46.561Z,97788.58
2018-11-10T04:51:15.106Z,97783.06
2018-11-10T04:53:43.576Z,97772.27
2018-11-10T04:56:12.197Z,97770.94
2018-11-10T04:58:42.024Z,97765.09
2018-11-10T05:01:10.628Z,97751.33
2018-11-10T05:03:39.574Z,97750.97
2018-11-10T05:06:08.250Z,97746.47
2018-11-10T05:08:36.726Z,97740.28
2018-11-10T05:11:05.565Z,97734.44
2018-11-10T05:13:34.073Z,97721.46
2018-11-10T05:16:03.332Z,97727.66
2018-11-10T05:18:31.878Z,97748.61
2018-11-10T05:21:00.326Z,97763.33
2018-11-10T05:23:28.809Z,97770.73
2018-11-10T05:25:57.844Z,97780.39
2018-11-10T05:28:27.013Z,97773.61
2018-11-10T05:30:55.607Z,97761.52
2018-11-10T05:33:24.399Z,97763.89
2018-11-10T05:35:53.009Z,97775.48
2018-11-10T05:38:21.546Z,97772.72
2018-11-10T05:40:50.045Z,97769.58
2018-11-10T05:43:19.121Z,97773.23
2018-11-10T05:45:47.749Z,97771.05
2018-11-10T05:48:16.916Z,97770.45
2018-11-10T05:50:45.587Z,97753.52
2018-11-10T05:53:14.136Z,97748.04
2018-11-10T05:55:42.719Z,97743.63
2018-11-10T05:58:11.422Z,97749.98
2018-11-10T06:00:39.881Z,97742.43
2018-11-10T06:03:08.491Z,97736.33
2018-11-10T06:05:37.853Z,97747.64
2018-11-10T06:08:06.387Z,97749.73
2018-11-10T06:10:36.656Z,97751.31
2018-11-10T06:13:05.419Z,97758.87
2018-11-10T06:15:34.137Z,97756.42
2018-11-10T06:18:04.450Z,97766.77
2018-11-10T06:20:33.006Z,97765.66
2018-11-10T06:23:01.502Z,97757.12
2018-11-10T06:25:29.974Z,97749.91
2018-11-10T06:27:58.721Z,97747.83
2018-11-10T06:30:28.267Z,97753.43
2018-11-10T06:32:57.274Z,97757.80
2018-11-10T06:35:25.929Z,97758.88
2018-11-10T06:37:54.423Z,97756.44
2018-11-10T06:40:24.801Z,97750.83
2018-11-10T06:42:53.998Z,97753.39
2018-11-10T06:45:22.560Z,97760.68
2018-11-10T06:47:51.093Z,97756.41
2018-11-10T06:50:20.787Z,97757.98
2018-11-10T06:52:49.481Z,97748.81
2018-11-10T06:55:18.256Z,97752.47
2018-11-10T06:57:46.992Z,97758.42
2018-11-10T07:00:16.633Z,97755.00
2018-11-10T07:02:45.174Z,97755.98
2018-11-10T07:05:14.596Z,97755.48
2018-11-10T07:07:43.334Z,97754.91
2018-11-10T07:10:11.987Z,97767.30
2018-11-10T07:12:40.602Z,97775.43
2018-11-10T07:15:10.010Z,97782.98
2018-11-10T07:17:38.815Z,97786.37
2018-11-10T07:20:08.031Z,97792.19
2018-11-10T07:22:36.837Z,97791.76
2018-11-10T07:25:07.483Z,97798.45
2018-11-10T07:27:40.161Z,97795.64
2018-11-10T07:30:14.691Z,97780.87
2018-11-10T07:32:43.786Z,97789.27
2018-11-10T07:35:13.289Z,97796.64
2018-11-10T07:37:42.317Z,97796.78
2018-11-10T07:40:12.530Z,97786.09
2018-11-10T07:42:41.630Z,97784.25
2018-11-10T07:45:12.237Z,97786.34
2018-11-10T07:47:41.677Z,97783.14
2018-11-10T07:50:10.952Z,97779.05
2018-11-10T07:52:39.823Z,97782.03
2018-11-10T07:55:09.359Z,97774.48
2018-11-10T07:57:37.962Z,97781.36
2018-11-10T08:00:10.000Z,97777.47
2018-11-10T08:02:38.613Z,97780.48
2018-11-10T08:05:09.583Z,97785.26
2018-11-10T08:07:38.376Z,97785.06
2018-11-10T08:10:07.512Z,97784.27
2018-11-10T08:12:36.297Z,97794.47
2018-11-10T08:15:05.947Z,97802.89
2018-11-10T08:17:35.299Z,97803.20
2018-11-10T08:20:03.971Z,97815.07
2018-11-10T08:22:35.234Z,97818.09
2018-11-10T08:25:03.993Z,97827.36
2018-11-10T08:27:32.486Z,97825.54
2018-11-10T08:30:01.191Z,97815.34
2018-11-10T08:32:30.552Z,97805.65
2018-11-10T08:35:00.011Z,97797.26
2018-11-10T08:37:28.946Z,97801.67
2018-11-10T08:39:57.484Z,97811.61
2018-11-10T08:42:39.298Z,97809.48
2018-11-10T08:45:09.201Z,97809.39
2018-11-10T08:47:38.723Z,97788.58
2018-11-10T08:50:08.835Z,97792.56
2018-11-10T08:52:38.369Z,97786.41
2018-11-10T08:55:08.448Z,97783.22
2018-11-10T08:57:37.398Z,97789.11
2018-11-10T09:00:06.486Z,97797.26
2018-11-10T09:02:35.229Z,97804.13
2018-11-10T09:05:03.900Z,97801.48
2018-11-10T09:07:32.438Z,97798.45
2018-11-10T09:10:01.057Z,97802.98
2018-11-10T09:12:29.673Z,97810.73
2018-11-10T09:14:58.364Z,97801.23
2018-11-10T09:17:27.074Z,97799.02
2018-11-10T09:19:55.772Z,97800.97
2018-11-10T09:22:24.305Z,97799.73
2018-11-10T09:24:52.782Z,97798.23
2018-11-10T09:27:22.618Z,97789.18
2018-11-10T09:29:51.360Z,97792.94
2018-11-10T09:32:19.865Z,97785.37
2018-11-10T09:34:48.360Z,97783.34
2018-11-10T09:37:16.945Z,97783.75
2018-11-10T09:39:45.528Z,97783.29
2018-11-10T09:42:14.884Z,97776.02
2018-11-10T09:44:43.434Z,97782.03
2018-11-10T09:47:12.708Z,97778.55
2018-11-10T09:49:41.303Z,97787.53
2018-11-10T09:52:10.395Z,97784.53
2018-11-10T09:54:38.932Z,97788.66
2018-11-10T09:57:09.056Z,97773.47
2018-11-10T09:59:37.666Z,97770.27
2018-11-10T10:02:06.858Z,97774.15
2018-11-10T10:04:35.176Z,97769.70
2018-11-10T10:07:14.807Z,97774.58
2018-11-10T10:09:46.083Z,97763.71
2018-11-10T10:12:14.746Z,97765.10
2018-11-10T10:14:43.238Z,97756.98
2018-11-10T10:17:12.970Z,97748.19
2018-11-10T10:19:41.533Z,97747.84
2018-11-10T10:22:10.130Z,97742.16
2018-11-10T10:24:38.738Z,97744.63
2018-11-10T10:27:07.436Z,97741.05
2018-11-10T10:29:36.696Z,97746.09
2018-11-10T10:32:05.533Z,97744.80
2018-11-10T10:34:34.859Z,97741.79
2018-11-10T10:37:06.843Z,97734.28
2018-11-10T10:39:39.257Z,97732.53
2018-11-10T10:42:11.895Z,97727.84
2018-11-10T10:44:44.456Z,97724.52
2018-11-10T10:47:16.477Z,97729.92
2018-11-10T10:49:45.221Z,97719.83
2018-11-10T10:52:18.262Z,97722.13
2018-11-10T10:54:50.457Z,97711.64
2018-11-10T10:57:22.941Z,97707.25
2018-11-10T10:59:55.694Z,97702.44
2018-11-10T11:02:33.629Z,97697.86
2018-11-10T11:05:10.512Z,97699.12
2018-11-10T11:07:43.489Z,97685.23
2018-11-10T11:10:15.030Z,97686.24
2018-11-10T11:12:45.861Z,97686.16
2018-11-10T11:15:15.161Z,97685.39
2018-11-10T11:17:44.773Z,97683.28
2018-11-10T11:20:14.352Z,97677.66
2018-11-10T11:22:44.721Z,97682.28
2018-11-10T11:25:15.307Z,97679.25
2018-11-10T11:27:44.245Z,97670.70
2018-11-10T11:30:12.776Z,97674.78
2018-11-10T11:32:42.617Z,97674.74
2018-11-10T11:35:13.086Z,97670.66
2018-11-10T11:37:42.412Z,97663.55
2018-11-10T11:40:12.832Z,97665.23
2018-11-10T11:42:42.949Z,97658.64
2018-11-10T11:45:12.378Z,97661.00
2018-11-10T11:47:42.264Z,97658.69
2018-11-10T11:50:12.708Z,97658.23
2018-11-10T11:52:42.171Z,97654.12
2018-11-10T11:55:12.087Z,97658.30
2018-11-10T11:57:42.052Z,97657.27
2018-11-10T12:00:17.546Z,97655.94
2018-11-10T12:02:46.788Z,97657.78
2018-11-10T12:05:16.594Z,97659.61
2018-11-10T12:07:46.728Z,97652.17
2018-11-10T12:10:16.212Z,97647.65
2018-11-10T12:12:44.983Z,97647.07
2018-11-10T12:15:14.861Z,97645.37
2018-11-10T12:17:43.407Z,97636.95
2018-11-10T12:20:13.314Z,97642.41
2018-11-10T12:22:42.306Z,97633.99
2018-11-10T12:25:12.062Z,97636.77
2018-11-10T12:27:42.238Z,97638.53
2018-11-10T12:30:11.461Z,97632.20
2018-11-10T12:32:40.545Z,97636.56
2018-11-10T12:35:10.453Z,97632.86
2018-11-10T12:37:39.248Z,97632.98
2018-11-10T12:40:09.437Z,97630.17
2018-11-10T12:42:38.885Z,97633.13
2018-11-10T12:45:08.469Z,97634.09
2018-11-10T12:47:37.728Z,97626.97
2018-11-10T12:50:07.286Z,97623.37
2018-11-10T12:52:35.813Z,97629.12
2018-11-10T12:55:06.359Z,97626.97
2018-11-10T12:57:34.968Z,97627.72
2018-11-10T13:00:03.545Z,97626.84
2018-11-10T13:02:32.025Z,97623.88
2018-11-10T13:05:02.262Z,97625.26
2018-11-10T13:07:31.003Z,97623.20
2018-11-10T13:10:00.239Z,97618.57
2018-11-10T13:12:30.080Z,97621.06
2018-11-10T13:15:04.372Z,97621.09
2018-11-10T13:17:33.102Z,97622.99
2018-11-10T13:20:01.633Z,97615.27
2018-11-10T13:22:31.222Z,97625.44
2018-11-10T13:24:59.750Z,97621.71
2018-11-10T13:27:28.213Z,97617.86
2018-11-10T13:29:56.723Z,97622.41
2018-11-10T13:32:25.301Z,97627.06
2018-11-10T13:34:56.516Z,97625.19
2018-11-10T13:37:25.404Z,97626.55
2018-11-10T13:39:54.333Z,97630.63
2018-11-10T13:42:24.400Z,97632.17
2018-11-10T13:44:53.332Z,97633.02
2018-11-10T13:47:24.069Z,97637.95
2018-11-10T13:49:52.983Z,97636.70
2018-11-10T13:52:21.859Z,97640.28
2018-11-10T13:54:50.082Z,97641.23
2018-11-10T13:57:20.575Z,97644.95
2018-11-10T13:59:51.395Z,97648.05
2018-11-10T14:02:20.510Z,97652.78
2018-11-10T14:04:48.991Z,97648.48
2018-11-10T14:07:18.291Z,97644.80
2018-11-10T14:09:47.311Z,97647.59
2018-11-10T14:12:16.547Z,97643.49
2018-11-10T14:14:47.559Z,97646.89
2018-11-10T14:17:16.482Z,97651.84
2018-11-10T14:19:45.437Z,97648.78
2018-11-10T14:22:17.109Z,97650.38
2018-11-10T14:24:45.949Z,97650.85
2018-11-10T14:27:14.502Z,97652.03
2018-11-10T14:29:43.119Z,97655.50
2018-11-10T14:32:12.447Z,97651.52
2018-11-10T14:34:41.230Z,97649.44
2018-11-10T14:37:10.100Z,97654.20
2018-11-10T14:39:39.460Z,97656.10
2018-11-10T14:42:08.321Z,97654.59
2018-11-10T14:44:36.923Z,97664.10
2018-11-10T14:47:06.394Z,97663.69
2018-11-10T14:49:35.035Z,97662.38
2018-11-10T14:52:03.551Z,97662.23
2018-11-10T14:54:32.035Z,97655.76
2018-11-10T14:57:01.432Z,97646.59
2018-11-10T14:59:30.355Z,97664.93
2018-11-10T15:02:00.531Z,97661.20
2018-11-10T15:04:29.167Z,97671.16
2018-11-10T15:06:57.690Z,97672.12
2018-11-10T15:09:26.710Z,97675.92
2018-11-10T15:11:55.501Z,97672.00
2018-11-10T15:14:24.616Z,97674.44
2018-11-10T15:16:53.341Z,97671.96
2018-11-10T15:19:21.993Z,97672.89
2018-11-10T15:21:50.541Z,97676.64
2018-11-10T15:24:19.145Z,97673.98
2018-11-10T15:26:47.631Z,97673.75
2018-11-10T15:29:16.150Z,97675.62
2018-11-10T15:31:45.250Z,97674.45
2018-11-10T15:34:15.792Z,97679.27
2018-11-10T15:36:46.799Z,97670.09
2018-11-10T15:39:18.018Z,97664.05
2018-11-10T15:41:48.055Z,97674.15
2018-11-10T15:44:17.210Z,97669.86
2018-11-10T15:46:46.928Z,97670.38
2018-11-10T15:49:16.756Z,97666.59
2018-11-10T15:51:45.856Z,97667.02
2018-11-10T15:54:15.639Z,97667.28
2018-11-10T15:56:45.940Z,97664.05
2018-11-10T15:59:15.621Z,97653.05
2018-11-10T16:01:44.985Z,97652.44
2018-11-10T16:04:13.599Z,97652.51
2018-11-10T16:06:42.840Z,97656.05
2018-11-10T16:09:13.990Z,97666.92
2018-11-10T16:11:43.452Z,97678.56
2018-11-10T16:14:14.120Z,97678.35
2018-11-10T16:16:43.351Z,97673.72
2018-11-10T16:19:13.264Z,97673.25
2018-11-10T16:21:43.411Z,97669.74
2018-11-10T16:24:13.406Z,97672.70
2018-11-10T16:26:42.827Z,97667.94
2018-11-10T16:29:11.944Z,97670.39
2018-11-10T16:31:40.632Z,97673.69
2018-11-10T16:34:09.627Z,97676.41
2018-11-10T16:36:39.629Z,97671.44
2018-11-10T16:39:09.634Z,97676.87
2018-11-10T16:41:38.288Z,97673.20
2018-11-10T16:44:06.946Z,97677.59
2018-11-10T16:46:36.256Z,97680.09
2018-11-10T16:49:05.129Z,97676.75
2018-11-10T16:51:34.872Z,97681.91
2018-11-10T16:54:04.769Z,97679.19
2018-11-10T16:56:34.156Z,97681.21
2018-11-10T16:59:02.861Z,97682.83
2018-11-10T17:01:31.485Z,97684.70
2018-11-10T17:04:00.664Z,97677.65
2018-11-10T17:06:30.281Z,97685.55
2018-11-10T17:08:59.899Z,97678.45
2018-11-10T17:11:29.642Z,97676.81
2018-11-10T17:13:58.284Z,97681.26
2018-11-10T17:16:27.800Z,97679.05
2018-11-10T17:18:56.503Z,97683.34
2018-11-10T17:21:25.266Z,97687.89
2018-11-10T17:23:53.760Z,97693.42
2018-11-10T17:26:22.425Z,97695.98
2018-11-10T17:28:51.519Z,97695.12
2018-11-10T17:31:20.219Z,97696.83
2018-11-10T17:33:48.829Z,97685.97
2018-11-10T17:36:18.749Z,97693.01
2018-11-10T17:38:47.524Z,97691.96
2018-11-10T17:41:16.008Z,97692.37
2018-11-10T17:43:44.932Z,97701.39
2018-11-10T17:46:13.648Z,97705.05
2018-11-10T17:48:42.179Z,97710.45
2018-11-10T17:51:11.359Z,97709.72
2018-11-10T17:53:40.362Z,97709.13
2018-11-10T17:56:08.907Z,97713.00
2018-11-10T17:58:37.607Z,97704.78
2018-11-10T18:01:06.244Z,97704.88
2018-11-10T18:03:35.716Z,97699.01
2018-11-10T18:06:04.646Z,97702.66
2018-11-10T18:08:33.193Z,97703.59
2018-11-10T18:11:02.542Z,97707.03
2018-11-10T18:13:31.248Z,97714.72
2018-11-10T18:16:00.162Z,97710.58
2018-11-10T18:18:28.868Z,97713.29
2018-11-10T18:20:58.432Z,97714.06
2018-11-10T18:23:26.979Z,97711.79
2018-11-10T18:25:55.964Z,97720.21
2018-11-10T18:28:25.146Z,97725.02
2018-11-10T18:30:54.026Z,97721.95
2018-11-10T18:33:23.018Z,97726.02
2018-11-10T18:35:51.846Z,97722.48
2018-11-10T18:38:20.509Z,97722.30
2018-11-10T18:40:49.709Z,97726.92
2018-11-10T18:43:18.735Z,97728.92
2018-11-10T18:45:50.035Z,97735.95
2018-11-10T18:48:19.234Z,97733.84
2018-11-10T18:50:48.193Z,97731.86
2018-11-10T18:53:16.850Z,97739.42
2018-11-10T18:55:45.534Z,97735.13
2018-11-10T18:58:14.194Z,97738.63
2018-11-10T19:00:42.863Z,97741.01
2018-11-10T19:03:12.397Z,97742.49
2018-11-10T19:05:42.356Z,97733.84
2018-11-10T19:08:14.102Z,97731.82
2018-11-10T19:10:43.310Z,97726.38
2018-11-10T19:13:12.390Z,97724.88
2018-11-10T19:15:41.506Z,97728.52
2018-11-10T19:18:10.836Z,97728.90
2018-11-10T19:20:40.285Z,97728.98
2018-11-10T19:23:09.181Z,97733.28
2018-11-10T19:25:38.688Z,97737.59
2018-11-10T19:28:07.619Z,97733.62
2018-11-10T19:30:36.582Z,97733.95
2018-11-10T19:33:06.659Z,97728.33
2018-11-10T19:35:35.872Z,97728.66
2018-11-10T19:38:04.981Z,97724.14
2018-11-10T19:40:34.539Z,97719.45
2018-11-10T19:43:03.781Z,97712.84
2018-11-10T19:45:33.715Z,97722.57
2018-11-10T19:48:03.294Z,97721.96
2018-11-10T19:50:35.289Z,97725.02
2018-11-10T19:53:04.170Z,97717.80
2018-11-10T19:55:34.167Z,97723.48
2018-11-10T19:58:03.603Z,97726.73
2018-11-10T20:00:32.411Z,97723.75
2018-11-10T20:03:01.830Z,97727.81
2018-11-10T20:05:31.413Z,97727.53
2018-11-10T20:08:00.080Z,97730.23
2018-11-10T20:10:28.828Z,97727.59
2018-11-10T20:13:00.083Z,97725.41
2018-11-10T20:15:29.217Z,97724.61
2018-11-10T20:17:58.587Z,97725.69
2018-11-10T20:20:27.617Z,97734.62
2018-11-10T20:22:56.133Z,97742.13
2018-11-10T20:25:24.950Z,97735.80
2018-11-10T20:27:53.553Z,97729.37
2018-11-10T20:30:22.396Z,97727.81
2018-11-10T20:32:51.438Z,97732.48
2018-11-10T20:35:19.961Z,97729.36
2018-11-10T20:37:48.577Z,97730.28
2018-11-10T20:40:19.010Z,97733.59
2018-11-10T20:42:48.086Z,97733.17
2018-11-10T20:45:18.471Z,97728.54
2018-11-10T20:47:47.603Z,97721.59
2018-11-10T20:50:16.770Z,97722.40
2018-11-10T20:52:45.543Z,97722.53
2018-11-10T20:55:14.597Z,97720.22
2018-11-10T20:57:44.065Z,97720.09
2018-11-10T21:00:15.521Z,97715.41
2018-11-10T21:02:44.685Z,97716.44
2018-11-10T21:05:13.776Z,97711.11
2018-11-10T21:07:43.737Z,97719.09
2018-11-10T21:10:15.291Z,97720.48
2018-11-10T21:12:44.836Z,97717.77
2018-11-10T21:15:14.165Z,97721.86
2018-11-10T21:17:43.253Z,97724.50
2018-11-10T21:20:12.576Z,97717.33
2018-11-10T21:22:41.232Z,97720.55
2018-11-10T21:25:13.122Z,97721.61
2018-11-10T21:27:42.568Z,97728.91
2018-11-10T21:30:12.709Z,97724.82
2018-11-10T21:32:43.334Z,97728.11
2018-11-10T21:35:12.195Z,97729.92
2018-11-10T21:37:40.678Z,97723.58
2018-11-10T21:40:13.835Z,97725.47
2018-11-10T21:42:42.644Z,97724.41
2018-11-10T21:45:12.403Z,97721.43
2018-11-10T21:47:41.120Z,97723.55
2018-11-10T21:50:13.012Z,97737.67
2018-11-10T21:52:42.877Z,97739.46
2018-11-10T21:55:17.657Z,97736.90
2018-11-10T21:57:47.086Z,97739.63
2018-11-10T22:00:17.670Z,97741.33
2018-11-10T22:02:46.765Z,97751.36
2018-11-10T22:05:18.251Z,97741.69
2018-11-10T22:07:46.973Z,97743.44
2018-11-10T22:10:17.008Z,97733.39
2018-11-10T22:12:46.690Z,97728.53
2018-11-10T22:15:16.718Z,97731.47
2018-11-10T22:17:45.707Z,97731.29
2018-11-10T22:20:17.287Z,97732.73
2018-11-10T22:22:45.892Z,97734.53
2018-11-10T22:25:14.851Z,97744.16
2018-11-10T22:27:45.036Z,97747.24
2018-11-10T22:30:15.967Z,97743.11
2018-11-10T22:32:45.999Z,97748.77
2018-11-10T22:35:15.599Z,97745.87
2018-11-10T22:37:44.166Z,97754.95
2018-11-10T22:40:15.310Z,97763.05
2018-11-10T22:42:45.224Z,97761.00
2018-11-10T22:45:15.867Z,97764.91
2018-11-10T22:47:44.536Z,97765.00
2018-11-10T22:50:18.021Z,97772.55
2018-11-10T22:52:47.631Z,97768.23
2018-11-10T22:55:16.165Z,97771.52
2018-11-10T22:57:45.163Z,97772.12
2018-11-10T23:00:26.807Z,97777.36
2018-11-10T23:02:59.898Z,97777.45
2018-11-10T23:05:32.415Z,97779.28
2018-11-10T23:08:03.234Z,97782.52
2018-11-10T23:10:31.925Z,97781.41
2018-11-10T23:13:03.122Z,97786.47
2018-11-10T23:15:32.008Z,97794.69
2018-11-10T23:18:04.501Z,97789.52
2018-11-10T23:20:33.222Z,97784.41
2018-11-10T23:23:05.516Z,97788.70
2018-11-10T23:25:37.833Z,97791.89
2018-11-10T23:28:09.744Z,97789.17
2018-11-10T23:30:38.455Z,97791.59
2018-11-10T23:33:07.061Z,97794.70
2018-11-10T23:35:35.569Z,97795.78
2018-11-10T23:38:04.767Z,97797.11
2018-11-10T23:40:33.274Z,97794.73
2018-11-10T23:43:02.086Z,97796.48
2018-11-10T23:45:30.815Z,97811.70
2018-11-10T23:47:59.681Z,97825.59
2018-11-10T23:50:33.605Z,97830.92
2018-11-10T23:53:06.850Z,97835.46
2018-11-10T23:55:39.660Z,97837.05
2018-11-10T23:58:12.882Z,97837.16
